createdAt,value
2023-03-27T00:03:06.832Z,25.91
2023-03-27T00:07:06.992Z,25.92
2023-03-27T00:11:07.215Z,25.94
2023-03-27T00:15:07.158Z,25.96
2023-03-27T00:19:07.129Z,25.94
2023-03-27T00:23:07.096Z,25.99
2023-03-27T00:27:07.082Z,25.95
2023-03-27T00:31:07.000Z,25.99
2023-03-27T00:35:06.976Z,25.96
2023-03-27T00:39:06.951Z,25.95
2023-03-27T00:43:06.921Z,25.97
2023-03-27T00:47:06.850Z,25.96
2023-03-27T00:51:06.904Z,26.01
2023-03-27T00:55:06.795Z,25.99
2023-03-27T00:59:06.773Z,25.99
2023-03-27T01:03:06.812Z,25.96
2023-03-27T01:07:06.691Z,26.01
2023-03-27T01:11:06.705Z,26.02
2023-03-27T01:15:06.622Z,25.98
2023-03-27T01:19:06.580Z,26.02
2023-03-27T01:23:06.570Z,25.98
2023-03-27T01:27:06.573Z,25.99
2023-03-27T01:31:06.577Z,25.99
2023-03-27T01:35:06.530Z,26.00
2023-03-27T01:39:06.505Z,26.00
2023-03-27T01:43:06.461Z,25.96
2023-03-27T01:47:06.412Z,25.94
2023-03-27T01:51:06.402Z,25.97
2023-03-27T01:55:06.383Z,25.98
2023-03-27T01:59:06.315Z,25.97
2023-03-27T02:03:06.274Z,26.07
2023-03-27T02:07:06.256Z,25.98
2023-03-27T02:11:06.200Z,26.01
2023-03-27T02:15:24.600Z,26.00
2023-03-27T02:19:07.270Z,26.00
2023-03-27T02:23:06.192Z,26.01
2023-03-27T02:27:06.402Z,26.03
2023-03-27T02:31:32.425Z,26.03
2023-03-27T02:35:07.546Z,26.01
2023-03-27T02:39:06.517Z,26.02
2023-03-27T02:43:06.667Z,26.07
2023-03-27T02:47:06.849Z,26.01
2023-03-27T02:51:07.090Z,26.00
2023-03-27T02:55:07.276Z,25.99
2023-03-27T02:59:07.440Z,26.07
2023-03-27T03:03:07.889Z,25.98
2023-03-27T03:07:07.874Z,26.07
2023-03-27T03:11:08.033Z,26.07
2023-03-27T03:15:08.296Z,26.04
2023-03-27T03:19:08.511Z,26.05
2023-03-27T03:23:08.692Z,26.05
2023-03-27T03:27:08.849Z,26.09
2023-03-27T03:31:09.114Z,26.08
2023-03-27T03:35:09.040Z,26.06
2023-03-27T03:39:09.016Z,26.02
2023-03-27T03:43:08.936Z,26.03
2023-03-27T03:47:08.961Z,26.05
2023-03-27T03:51:08.887Z,25.99
2023-03-27T03:55:08.864Z,26.09
2023-03-27T03:59:08.835Z,26.09
2023-03-27T04:03:08.965Z,26.09
2023-03-27T04:07:08.740Z,25.81
2023-03-27T04:11:08.715Z,25.75
2023-03-27T04:15:08.734Z,25.59
2023-03-27T04:19:08.661Z,25.39
2023-03-27T04:23:08.795Z,25.17
2023-03-27T04:27:08.869Z,25.07
2023-03-27T04:31:08.904Z,24.91
2023-03-27T04:35:08.879Z,24.89
2023-03-27T04:39:08.908Z,24.91
2023-03-27T04:43:08.976Z,24.86
2023-03-27T04:47:09.306Z,24.89
2023-03-27T04:55:09.228Z,24.97
2023-03-27T04:59:09.248Z,24.90
2023-03-27T05:03:09.362Z,24.95
2023-03-27T05:07:09.298Z,24.95
2023-03-27T05:11:09.266Z,25.00
2023-03-27T05:15:09.299Z,24.95
2023-03-27T05:19:09.334Z,25.02
2023-03-27T05:23:09.330Z,24.98
2023-03-27T05:27:09.278Z,25.00
2023-03-27T05:31:09.965Z,24.83
2023-03-27T05:35:09.470Z,24.79
2023-03-27T05:39:09.358Z,25.29
2023-03-27T05:43:11.345Z,25.78
2023-03-27T05:47:09.463Z,26.05
2023-03-27T05:51:09.807Z,26.70
2023-03-27T05:55:09.781Z,26.96
2023-03-27T05:59:09.712Z,27.17
2023-03-27T06:03:10.043Z,27.43
2023-03-27T06:07:10.125Z,27.64
2023-03-27T06:11:10.072Z,27.69
2023-03-27T06:15:10.163Z,27.76
2023-03-27T06:19:10.307Z,27.67
2023-03-27T06:23:09.959Z,27.74
2023-03-27T06:27:10.901Z,27.83
2023-03-27T06:31:09.992Z,27.64
2023-03-27T06:35:09.858Z,27.87
2023-03-27T06:39:09.929Z,25.45
2023-03-27T06:43:09.879Z,26.33
2023-03-27T06:47:09.804Z,26.76
2023-03-27T06:51:09.706Z,26.81
2023-03-27T06:55:14.651Z,26.79
2023-03-27T06:59:10.832Z,27.14
2023-03-27T07:03:09.926Z,26.99
2023-03-27T07:07:09.734Z,27.10
2023-03-27T07:11:12.195Z,27.01
2023-03-27T07:15:09.696Z,27.14
2023-03-27T07:19:09.691Z,27.23
2023-03-27T07:23:09.617Z,27.57
2023-03-27T07:27:09.567Z,27.56
2023-03-27T07:31:20.119Z,27.96
2023-03-27T07:35:10.486Z,27.74
2023-03-27T07:39:09.513Z,25.46
2023-03-27T07:43:09.673Z,24.85
2023-03-27T07:47:09.866Z,25.69
2023-03-27T07:51:13.711Z,25.74
2023-03-27T07:55:10.005Z,25.61
2023-03-27T07:59:09.992Z,25.49
2023-03-27T08:03:10.665Z,25.56
2023-03-27T08:07:09.938Z,25.61
2023-03-27T08:11:23.042Z,25.55
2023-03-27T08:15:10.816Z,25.66
2023-03-27T08:19:09.921Z,24.67
2023-03-27T08:23:09.755Z,24.03
2023-03-27T08:27:09.976Z,24.43
2023-03-27T08:31:10.194Z,24.04
2023-03-27T08:35:10.075Z,23.57
2023-03-27T08:39:10.133Z,24.60
2023-03-27T08:43:10.135Z,24.49
2023-03-27T08:47:10.273Z,24.58
2023-03-27T08:51:11.687Z,23.52
2023-03-27T08:55:10.415Z,23.96
2023-03-27T08:59:10.917Z,23.54
2023-03-27T09:03:10.952Z,23.23
2023-03-27T09:07:10.973Z,24.25
2023-03-27T09:11:11.156Z,24.40
2023-03-27T09:15:11.209Z,24.51
2023-03-27T09:19:11.206Z,24.55
2023-03-27T09:23:11.374Z,24.97
2023-03-27T09:27:11.941Z,24.75
2023-03-27T09:31:11.925Z,24.80
2023-03-27T09:35:11.935Z,23.68
2023-03-27T09:39:11.999Z,25.14
2023-03-27T09:43:12.446Z,25.60
2023-03-27T09:47:12.205Z,25.59
2023-03-27T09:51:12.397Z,25.38
2023-03-27T09:55:12.431Z,25.12
2023-03-27T09:59:12.655Z,25.16
2023-03-27T10:03:12.841Z,24.94
2023-03-27T10:07:12.851Z,24.83
2023-03-27T10:11:12.889Z,24.82
2023-03-27T10:15:12.972Z,24.89
2023-03-27T10:19:12.944Z,24.93
2023-03-27T10:23:13.429Z,25.06
2023-03-27T10:27:12.995Z,25.37
2023-03-27T10:31:13.083Z,22.92
2023-03-27T10:35:13.239Z,21.61
2023-03-27T10:39:13.397Z,21.27
2023-03-27T10:43:13.519Z,21.65
2023-03-27T10:47:13.717Z,21.68
2023-03-27T10:51:13.823Z,21.67
2023-03-27T10:55:13.912Z,21.72
2023-03-27T10:59:13.712Z,21.69
2023-03-27T11:03:13.740Z,21.65
2023-03-27T11:07:16.352Z,21.71
2023-03-27T11:11:13.660Z,21.68
2023-03-27T11:15:13.636Z,21.58
2023-03-27T11:19:13.532Z,21.97
2023-03-27T11:23:13.542Z,22.02
2023-03-27T11:27:14.623Z,22.03
2023-03-27T11:31:13.483Z,22.04
2023-03-27T11:35:13.404Z,22.08
2023-03-27T11:39:13.371Z,22.11
2023-03-27T11:43:13.333Z,22.19
2023-03-27T11:47:13.897Z,22.19
2023-03-27T11:51:13.235Z,22.11
2023-03-27T11:55:13.240Z,22.16
2023-03-27T11:59:13.266Z,22.15
2023-03-27T12:03:13.240Z,22.12
2023-03-27T12:07:13.329Z,22.25
2023-03-27T12:11:13.173Z,22.32
2023-03-27T12:15:13.200Z,22.39
2023-03-27T12:19:27.784Z,22.49
2023-03-27T12:23:14.205Z,22.69
2023-03-27T12:27:13.297Z,22.73
2023-03-27T12:31:13.210Z,22.67
2023-03-27T12:35:13.164Z,22.76
2023-03-27T12:39:13.126Z,22.80
2023-03-27T12:43:13.050Z,22.81
2023-03-27T12:47:13.157Z,22.83
2023-03-27T12:51:13.258Z,22.81
2023-03-27T12:55:13.270Z,22.87
2023-03-27T12:59:13.399Z,22.94
2023-03-27T13:03:13.499Z,22.90
2023-03-27T13:07:13.521Z,22.93
2023-03-27T13:11:13.621Z,22.92
2023-03-27T13:15:13.688Z,22.83
2023-03-27T13:19:13.750Z,22.92
2023-03-27T13:23:13.808Z,22.92
2023-03-27T13:27:13.884Z,22.84
2023-03-27T13:31:13.966Z,22.94
2023-03-27T13:35:13.894Z,22.91
2023-03-27T13:39:13.968Z,22.90
2023-03-27T13:43:13.994Z,22.81
2023-03-27T13:47:13.962Z,22.84
2023-03-27T13:51:13.992Z,22.79
2023-03-27T13:55:13.982Z,22.75
2023-03-27T13:59:14.331Z,22.74
2023-03-27T14:03:14.157Z,22.68
2023-03-27T14:07:13.953Z,22.71
2023-03-27T14:11:13.975Z,22.79
2023-03-27T14:15:13.994Z,22.82
2023-03-27T14:19:13.987Z,22.85
2023-03-27T14:23:13.948Z,22.89
2023-03-27T14:27:14.044Z,22.99
2023-03-27T14:31:13.973Z,23.09
2023-03-27T14:35:13.942Z,23.02
2023-03-27T14:39:13.988Z,23.10
2023-03-27T14:43:13.917Z,23.03
2023-03-27T14:47:13.913Z,23.01
2023-03-27T14:51:13.991Z,23.01
2023-03-27T14:55:14.074Z,23.03
2023-03-27T14:59:14.140Z,22.99
2023-03-27T15:03:14.162Z,23.08
2023-03-27T15:07:14.158Z,22.98
2023-03-27T15:11:14.203Z,23.08
2023-03-27T15:15:14.219Z,23.06
2023-03-27T15:19:14.238Z,23.07
2023-03-27T15:23:14.164Z,23.10
2023-03-27T15:27:14.187Z,23.11
2023-03-27T15:31:14.206Z,23.18
2023-03-27T15:35:14.148Z,23.24
2023-03-27T15:39:14.167Z,23.16
2023-03-27T15:43:14.191Z,23.14
2023-03-27T15:47:15.083Z,23.15
2023-03-27T15:51:14.174Z,23.13
2023-03-27T15:55:14.189Z,23.18
2023-03-27T15:59:14.116Z,23.22
2023-03-27T16:03:14.172Z,23.24
2023-03-27T16:07:14.078Z,23.31
2023-03-27T16:11:14.106Z,23.34
2023-03-27T16:15:14.111Z,23.35
2023-03-27T16:19:14.154Z,23.41
2023-03-27T16:23:14.208Z,23.32
2023-03-27T16:27:14.214Z,23.42
2023-03-27T16:31:14.311Z,23.50
2023-03-27T16:35:14.333Z,23.57
2023-03-27T16:39:14.416Z,23.63
2023-03-27T16:43:14.532Z,23.68
2023-03-27T16:47:14.623Z,23.62
2023-03-27T16:51:14.823Z,23.61
2023-03-27T16:55:14.890Z,23.61
2023-03-27T16:59:15.017Z,23.69
2023-03-27T17:03:15.190Z,23.68
2023-03-27T17:07:15.295Z,23.71
2023-03-27T17:11:15.430Z,23.69
2023-03-27T17:15:15.526Z,23.74
2023-03-27T17:19:15.702Z,23.74
2023-03-27T17:23:15.833Z,23.79
2023-03-27T17:27:16.061Z,23.78
2023-03-27T17:31:16.295Z,23.81
2023-03-27T17:35:16.393Z,23.82
2023-03-27T17:39:16.602Z,23.75
2023-03-27T17:43:16.781Z,23.83
2023-03-27T17:47:17.095Z,23.80
2023-03-27T17:51:17.242Z,23.80
2023-03-27T17:55:17.193Z,23.86
2023-03-27T17:59:17.215Z,23.86
2023-03-27T18:03:17.252Z,23.91
2023-03-27T18:07:17.155Z,23.90
2023-03-27T18:11:17.107Z,23.91
2023-03-27T18:15:17.071Z,23.91
2023-03-27T18:19:17.026Z,23.92
2023-03-27T18:23:16.958Z,23.95
2023-03-27T18:27:16.951Z,23.95
2023-03-27T18:31:16.886Z,24.09
2023-03-27T18:35:17.013Z,24.13
2023-03-27T18:39:17.163Z,24.06
2023-03-27T18:43:17.439Z,23.97
2023-03-27T18:47:17.425Z,23.82
2023-03-27T18:51:18.165Z,23.81
2023-03-27T18:55:17.843Z,23.76
2023-03-27T18:59:18.023Z,23.67
2023-03-27T19:03:18.297Z,23.50
2023-03-27T19:07:18.283Z,23.54
2023-03-27T19:11:19.184Z,23.57
2023-03-27T19:15:20.381Z,23.56
2023-03-27T19:19:18.790Z,23.56
2023-03-27T19:23:18.966Z,23.57
2023-03-27T19:27:23.758Z,23.63
2023-03-27T19:31:20.102Z,23.57
2023-03-27T19:35:18.985Z,23.60
2023-03-27T19:39:18.967Z,23.65
2023-03-27T19:43:18.978Z,23.71
2023-03-27T19:47:18.915Z,23.71
2023-03-27T19:51:18.882Z,23.75
2023-03-27T19:55:18.867Z,23.76
2023-03-27T19:59:29.826Z,23.81
2023-03-27T20:03:19.871Z,23.85
2023-03-27T20:07:18.772Z,23.82
2023-03-27T20:11:18.734Z,23.93
2023-03-27T20:15:18.748Z,23.90
2023-03-27T20:19:19.410Z,23.92
2023-03-27T20:23:18.661Z,23.95
2023-03-27T20:27:18.571Z,23.95
2023-03-27T20:31:18.620Z,24.02
2023-03-27T20:35:24.214Z,24.06
2023-03-27T20:39:19.666Z,24.06
2023-03-27T20:43:18.467Z,24.07
2023-03-27T20:47:18.414Z,24.10
2023-03-27T20:51:18.368Z,24.14
2023-03-27T20:55:30.447Z,24.14
2023-03-27T20:59:19.305Z,24.17
2023-03-27T21:03:18.311Z,24.18
2023-03-27T21:07:18.272Z,24.17
2023-03-27T21:11:18.353Z,24.24
2023-03-27T21:15:18.387Z,24.26
2023-03-27T21:19:18.460Z,24.26
2023-03-27T21:23:18.550Z,24.28
2023-03-27T21:27:18.575Z,24.27
2023-03-27T21:31:18.614Z,24.27
2023-03-27T21:35:18.700Z,24.30
2023-03-27T21:39:18.758Z,24.30
2023-03-27T21:43:18.787Z,24.35
2023-03-27T21:47:18.852Z,24.35
2023-03-27T21:51:18.957Z,24.34
2023-03-27T21:55:18.970Z,24.39
2023-03-27T21:59:19.112Z,24.39
2023-03-27T22:03:19.126Z,24.43
2023-03-27T22:07:19.204Z,24.47
2023-03-27T22:11:19.283Z,24.40
2023-03-27T22:15:19.356Z,24.43
2023-03-27T22:19:19.501Z,24.47
2023-03-27T22:23:19.547Z,24.42
2023-03-27T22:27:19.820Z,24.49
2023-03-27T22:31:19.738Z,24.52
2023-03-27T22:35:19.778Z,24.54
2023-03-27T22:39:19.919Z,24.55
2023-03-27T22:43:22.558Z,24.54
2023-03-27T22:47:19.987Z,24.57
2023-03-27T22:51:19.948Z,24.60
2023-03-27T22:55:19.889Z,24.58
2023-03-27T22:59:19.905Z,24.60
2023-03-27T23:03:19.954Z,24.62
2023-03-27T23:07:19.761Z,24.59
2023-03-27T23:11:19.765Z,24.59
2023-03-27T23:15:30.280Z,24.62
2023-03-27T23:19:20.733Z,24.64
2023-03-27T23:23:19.640Z,24.69
2023-03-27T23:27:19.622Z,24.73
2023-03-27T23:31:19.723Z,24.64
2023-03-27T23:35:19.823Z,24.64
2023-03-27T23:39:20.188Z,24.70
2023-03-27T23:43:20.151Z,24.70
2023-03-27T23:47:20.274Z,24.75
2023-03-27T23:51:20.420Z,24.71
2023-03-27T23:55:20.601Z,24.74
2023-03-27T23:59:20.762Z,24.72
